Millinocket, Millinocket Municipal Airport (KMLT)

NameMillinocket Municipal Airport
CityMillinocket
CountryUnited States
ICAOKMLT
IATAMLT
Altitude124 m
CoordinatesGoogle Map
Live Air TrafficLiveATC.net
METARKMLT 201553Z AUTO 13004KT 10SM OVC006 12/10 A2971 RMK AO2 SLP067 T01220100 PNO
2019-05-20 15:53:00 Wind: East-Southeast (130°) 2.06 m/s - Visibility: 16093.4 m - Temperature: 12 °C - Dew point: 10 °C - Humidity: 87.7% - Pressure: 1006.1 hPa
Statistics

The table below shows the detailed information of all flights to/from Millinocket, Millinocket Municipal Airport (KMLT).